ADDS TAF Board (Experimental) INFO Settings

IDs: Format: Expanded Condensed

KCLT - Charlotte/Douglas In, NC, US

Issued at 1420 UTC 25 Apr 2015
Updated at: 1427 UTC 25 Apr 2015
Time1352Z 25/15Z 25/16Z 25/17Z 25/18Z 25/19Z 25/20Z 25/21Z 25/22Z 25/23Z 26/00Z 26/01Z 26/02Z 26/03Z
Type OBS PRVL PRVL PRVL PRVL PRVL PRVL PRVL PRVL PRVL PRVL
  [PRB30]  
PRVL
  [PRB30]  
PRVL PRVL
VIS 2.5 2 3 3 3 3 3 3 6 6 6
  [4]  
6
  [4]  
6 6
CIG 7 7 7 7 7 7 7 7 9 9 9
  [8]  
9
  [8]  
9 9
Cover OVC OVC OVC OVC OVC OVC OVC OVC OVC OVC OVC
  [BKN]  
OVC
  [BKN]  
OVC OVC
FltCat IFR IFR IFR IFR IFR IFR IFR IFR IFR IFR IFR
  [IFR]  
IFR
  [IFR]  
IFR IFR
WX -RA BR -RA BR -SHRA -SHRA -SHRA -SHRA -SHRA -SHRA -SHRA -SHRA -SHRA
  [TSRA]  
-SHRA
  [TSRA]  
-SHRA -SHRA
WDir 220 220 200 200 200 200 200 200 VRB VRB VRB
[VRB]
VRB
[VRB]
VRB VRB
WSpd 5 5 5 5 5 5 5 5 0 0 0
  [0]  
0
  [0]  
0 0
WGst -- -- -- -- -- -- -- -- -- -- --
  [--]  
--
  [--]  
-- --
R05/23
XWnd -1 -1 -2 -2 -2 -2 -2 -2 VRB VRB 0 0 VRB VRB
XGst -- -- -- -- -- -- -- -- -- -- 0 0 -- --
HWnd -5 -5 -4 -4 -4 -4 -4 -4 VRB VRB 0 0 VRB VRB
HGst -- -- -- -- -- -- -- -- -- -- 0 0 -- --
R18/36
XWnd -3 -3 -2 -2 -2 -2 -2 -2 VRB VRB 0 0 VRB VRB
XGst -- -- -- -- -- -- -- -- -- -- 0 0 -- --
HWnd 4 4 5 5 5 5 5 5 VRB VRB 0 0 VRB VRB
HGst -- -- -- -- -- -- -- -- -- -- 0 0 -- --

NOTE: TEMPO conditions in [brackets]. Keep in mind TEMPO conditions might be better (lower impact) than prevailing conditions.

Raw TAF
KCLT 251420Z 2514/2612 22005KT 2SM -RA BR OVC007
  FM251600 20005KT 3SM -SHRA OVC007
  FM252200 00000KT 6SM -SHRA BKN009 OVC014
  PROB30 2600/2602 4SM TSRA BKN008CB
  FM260500 03004KT 6SM BR BKN070 WS020/24025KT


Raw METAR
KCLT 251352Z 22005KT 2 1/2SM -RA BR OVC007 13/12 A2990 RMK AO2 SLP121 P0008 T01330122
KCLT 251348Z 21005KT 2 1/2SM RA BR BKN007 OVC047 13/12 A2990 RMK AO2 P0008
KCLT 251252Z 23007KT 4SM RA BR FEW023 BKN045 OVC070 13/11 A2992 RMK AO2 RAB01 SLP127 P0004 T01330111
KCLT 251152Z 23011KT 8SM OVC065 14/08 A2990 RMK AO2 SLP121 60000 T01440083 10150 20128 53006

METAR Board
Radar Display
Forecast Discussion

TAF Board Legend

Potential Impact
Threat None Slight Moderate High
Visibility (sm) ≥5.1 5.1>X≥3 3>X≥1 <1
Ceiling (100 ft) ≥30.1 30.1>X≥10 10>X≥5 <5
Wind Speed (kt) <10 10≤X<20 20≤X<30 ≥30
Wind Gust (kt) <15 15≤X<25 25≤X<35 ≥35
Weather No Wx Reported VCTS,-TS,-FZRA,SN TS,FZRA +TS,+FZRA,+SN